createdAt,value
2023-05-12T00:01:53.410Z,20.10
2023-05-12T00:04:24.253Z,20.80
2023-05-12T00:06:53.576Z,19.48
2023-05-12T00:09:24.129Z,19.55
2023-05-12T00:11:53.472Z,20.42
2023-05-12T00:14:23.104Z,18.88
2023-05-12T00:16:52.638Z,18.55
2023-05-12T00:19:24.309Z,17.88
2023-05-12T00:21:54.466Z,18.92
2023-05-12T00:24:24.965Z,15.68
2023-05-12T00:26:53.188Z,16.80
2023-05-12T00:29:24.057Z,15.07
2023-05-12T00:31:56.206Z,15.07
2023-05-12T00:34:29.860Z,15.38
2023-05-12T00:36:59.216Z,14.85
2023-05-12T00:39:28.523Z,13.43
2023-05-12T00:42:01.250Z,13.45
2023-05-12T00:44:30.615Z,14.43
2023-05-12T00:47:00.249Z,13.13
2023-05-12T00:49:31.673Z,12.57
2023-05-12T00:52:00.726Z,11.52
2023-05-12T00:54:31.392Z,12.63
2023-05-12T00:57:01.976Z,10.68
2023-05-12T00:59:31.740Z,9.32
2023-05-12T01:02:02.542Z,11.00
2023-05-12T01:04:32.791Z,9.23
2023-05-12T01:07:11.571Z,8.43
2023-05-12T01:09:41.478Z,10.73
2023-05-12T01:12:12.788Z,9.80
2023-05-12T01:14:42.433Z,10.30
2023-05-12T01:17:14.420Z,8.73
2023-05-12T01:19:50.710Z,8.65
2023-05-12T01:22:20.458Z,8.27
2023-05-12T01:24:54.801Z,8.40
2023-05-12T01:27:27.351Z,8.18
2023-05-12T01:30:00.174Z,8.77
2023-05-12T01:32:32.680Z,6.68
2023-05-12T01:35:02.345Z,7.22
2023-05-12T01:37:32.702Z,9.25
2023-05-12T01:40:03.195Z,9.85
2023-05-12T01:42:33.881Z,7.95
2023-05-12T01:45:03.198Z,7.00
2023-05-12T01:47:33.092Z,6.43
2023-05-12T01:50:11.389Z,6.50
2023-05-12T01:52:42.020Z,6.80
2023-05-12T01:55:13.757Z,8.40
2023-05-12T01:57:54.876Z,6.97
2023-05-12T02:00:25.043Z,6.90
2023-05-12T02:02:56.767Z,7.47
2023-05-12T02:05:26.527Z,8.27
2023-05-12T02:07:55.101Z,8.70
2023-05-12T02:10:24.518Z,7.43
2023-05-12T02:12:55.241Z,7.88
2023-05-12T02:15:25.597Z,8.00
2023-05-12T02:17:53.999Z,6.50
2023-05-12T02:20:24.649Z,6.80
2023-05-12T02:22:54.007Z,6.07
2023-05-12T02:25:24.648Z,7.93
2023-05-12T02:27:54.392Z,7.03
2023-05-12T02:30:22.737Z,8.25
2023-05-12T02:32:51.061Z,6.70
2023-05-12T02:35:20.606Z,5.38
2023-05-12T02:37:49.878Z,9.80
2023-05-12T02:40:19.836Z,7.68
2023-05-12T02:42:50.217Z,6.53
2023-05-12T02:45:23.739Z,6.70
2023-05-12T02:47:52.203Z,7.18
2023-05-12T02:50:22.366Z,7.72
2023-05-12T02:52:52.372Z,8.75
2023-05-12T02:55:20.672Z,8.27
2023-05-12T02:57:50.313Z,7.57
2023-05-12T03:00:19.263Z,8.30
2023-05-12T03:02:50.292Z,8.15
2023-05-12T03:05:19.998Z,6.50
2023-05-12T03:07:50.616Z,8.48
2023-05-12T03:10:20.744Z,8.00
2023-05-12T03:12:50.346Z,8.77
2023-05-12T03:15:19.326Z,8.65
2023-05-12T03:17:49.256Z,6.93
2023-05-12T03:20:20.358Z,8.77
2023-05-12T03:22:49.843Z,6.15
2023-05-12T03:25:19.165Z,9.05
2023-05-12T03:27:49.308Z,7.57
2023-05-12T03:32:48.429Z,7.72
2023-05-12T03:35:17.816Z,7.03
2023-05-12T03:37:47.517Z,6.95
2023-05-12T03:40:19.817Z,7.50
2023-05-12T03:42:48.607Z,8.68
2023-05-12T03:45:21.160Z,6.82
2023-05-12T03:47:52.199Z,8.55
2023-05-12T03:50:23.362Z,5.68
2023-05-12T03:52:56.071Z,6.47
2023-05-12T03:55:24.516Z,6.35
2023-05-12T03:57:55.013Z,8.35
2023-05-12T04:00:24.630Z,6.18
2023-05-12T04:02:57.393Z,5.53
2023-05-12T04:05:27.314Z,6.90
2023-05-12T04:07:56.055Z,6.68
2023-05-12T04:10:26.997Z,6.75
2023-05-12T04:13:00.370Z,5.85
2023-05-12T04:15:29.191Z,7.70
2023-05-12T04:18:00.043Z,5.40
2023-05-12T04:20:28.181Z,5.03
2023-05-12T04:22:57.994Z,7.65
2023-05-12T04:25:27.708Z,6.53
2023-05-12T04:27:57.212Z,5.38
2023-05-12T04:30:26.860Z,6.68
2023-05-12T04:32:56.748Z,6.15
2023-05-12T04:35:27.583Z,7.45
2023-05-12T04:37:56.536Z,6.78
2023-05-12T04:40:25.945Z,7.82
2023-05-12T04:42:54.655Z,5.50
2023-05-12T04:45:24.669Z,4.80
2023-05-12T04:47:53.903Z,5.60
2023-05-12T04:50:22.059Z,5.35
2023-05-12T04:52:52.205Z,7.22
2023-05-12T04:55:23.312Z,6.70
2023-05-12T04:57:51.646Z,6.50
2023-05-12T05:00:21.375Z,5.18
2023-05-12T05:02:50.997Z,4.40
2023-05-12T05:05:20.620Z,6.88
2023-05-12T05:07:51.495Z,6.63
2023-05-12T05:10:21.942Z,5.93
2023-05-12T05:12:51.753Z,6.18
2023-05-12T05:17:51.007Z,4.40
2023-05-12T05:20:20.004Z,4.35
2023-05-12T05:22:52.484Z,6.03
2023-05-12T05:25:21.954Z,6.78
2023-05-12T05:30:20.240Z,5.35
2023-05-12T05:32:49.816Z,4.72
2023-05-12T05:35:18.805Z,5.03
2023-05-12T05:37:53.728Z,7.00
2023-05-12T05:40:24.546Z,4.97
2023-05-12T05:42:54.811Z,6.03
2023-05-12T05:45:28.106Z,5.95
2023-05-12T05:47:57.731Z,4.60
2023-05-12T05:50:27.900Z,6.25
2023-05-12T05:52:57.508Z,5.38
2023-05-12T05:55:28.179Z,5.35
2023-05-12T05:57:57.154Z,5.13
2023-05-12T06:02:57.131Z,4.72
2023-05-12T06:05:27.788Z,3.38
2023-05-12T06:07:58.503Z,5.40
2023-05-12T06:10:28.762Z,5.53
2023-05-12T06:12:58.246Z,4.50
2023-05-12T06:15:27.782Z,3.78
2023-05-12T06:17:57.241Z,6.07
2023-05-12T06:20:26.018Z,3.33
2023-05-12T06:22:56.614Z,3.38
2023-05-12T06:25:27.513Z,4.18
2023-05-12T06:27:56.898Z,5.10
2023-05-12T06:30:26.906Z,4.82
2023-05-12T06:32:58.089Z,4.80
2023-05-12T06:35:27.709Z,4.97
2023-05-12T06:37:57.209Z,3.90
2023-05-12T06:40:26.827Z,4.72
2023-05-12T06:42:56.259Z,3.00
2023-05-12T06:45:27.939Z,2.83
2023-05-12T06:47:58.742Z,4.60
2023-05-12T06:50:29.480Z,2.55
2023-05-12T06:53:00.153Z,2.80
2023-05-12T06:55:30.915Z,3.40
2023-05-12T06:58:00.279Z,3.97
2023-05-12T07:00:30.074Z,2.30
2023-05-12T07:02:59.545Z,4.95
2023-05-12T07:05:30.232Z,5.00
2023-05-12T07:07:59.693Z,4.45
2023-05-12T07:10:30.505Z,4.28
2023-05-12T07:13:00.031Z,4.15
2023-05-12T07:15:31.968Z,2.22
2023-05-12T07:18:02.623Z,5.07
2023-05-12T07:20:33.387Z,4.78
2023-05-12T07:23:03.150Z,4.22
2023-05-12T07:25:32.716Z,4.88
2023-05-12T07:28:01.074Z,4.63
2023-05-12T07:30:31.981Z,4.20
2023-05-12T07:33:03.449Z,4.72
2023-05-12T07:35:32.007Z,3.92
2023-05-12T07:38:00.289Z,4.18
2023-05-12T07:40:29.728Z,2.85
2023-05-12T07:43:00.774Z,3.33
2023-05-12T07:45:30.529Z,5.50
2023-05-12T07:48:00.088Z,2.97
2023-05-12T07:50:28.419Z,3.13
2023-05-12T07:52:58.077Z,4.95
2023-05-12T07:55:27.556Z,3.80
2023-05-12T07:57:58.614Z,4.93
2023-05-12T08:00:31.633Z,5.20
2023-05-12T08:03:01.190Z,5.70
2023-05-12T08:05:29.899Z,7.00
2023-05-12T08:07:59.351Z,4.40
2023-05-12T08:10:31.250Z,5.28
2023-05-12T08:12:59.784Z,5.10
2023-05-12T08:15:31.788Z,5.25
2023-05-12T08:18:02.001Z,5.55
2023-05-12T08:20:32.465Z,5.35
2023-05-12T08:23:01.935Z,4.85
2023-05-12T08:25:32.681Z,2.72
2023-05-12T08:28:02.422Z,2.33
2023-05-12T08:30:31.956Z,2.22
2023-05-12T08:33:01.526Z,2.47
2023-05-12T08:35:31.009Z,5.30
2023-05-12T08:38:01.800Z,2.25
2023-05-12T08:40:35.279Z,2.50
2023-05-12T08:43:15.612Z,3.38
2023-05-12T08:45:46.814Z,2.70
2023-05-12T08:48:16.681Z,3.05
2023-05-12T08:50:48.655Z,3.78
2023-05-12T08:53:21.090Z,2.80
2023-05-12T08:57:08.281Z,2.50
2023-05-12T08:58:41.993Z,2.85
2023-05-12T09:01:15.042Z,3.08
2023-05-12T09:03:46.899Z,2.75
2023-05-12T09:06:17.438Z,2.83
2023-05-12T09:08:47.149Z,2.90
2023-05-12T09:11:18.623Z,4.82
2023-05-12T09:13:55.705Z,5.20
2023-05-12T09:16:31.033Z,2.72
2023-05-12T09:19:04.606Z,2.50
2023-05-12T09:21:36.859Z,2.95
2023-05-12T09:24:07.204Z,3.13
2023-05-12T09:26:49.757Z,5.63
2023-05-12T09:29:30.695Z,5.03
2023-05-12T09:32:03.555Z,3.25
2023-05-12T09:34:39.570Z,2.75
2023-05-12T09:37:09.523Z,3.15
2023-05-12T09:39:43.077Z,3.17
2023-05-12T09:42:13.512Z,4.53
2023-05-12T09:44:46.880Z,3.38
2023-05-12T09:47:16.694Z,5.22
2023-05-12T09:49:54.140Z,2.55
2023-05-12T09:52:25.954Z,5.03
2023-05-12T09:54:55.506Z,2.72
2023-05-12T09:57:28.458Z,2.88
2023-05-12T09:59:58.628Z,2.15
2023-05-12T10:02:30.488Z,2.40
2023-05-12T10:05:04.088Z,2.45
2023-05-12T10:07:35.982Z,2.38
2023-05-12T10:10:08.656Z,2.92
2023-05-12T10:12:38.723Z,3.55
2023-05-12T10:15:10.799Z,2.08
2023-05-12T10:17:42.692Z,3.17
2023-05-12T10:20:12.409Z,2.42
2023-05-12T10:22:43.069Z,3.05
2023-05-12T10:25:11.690Z,3.42
2023-05-12T10:27:40.814Z,2.40
2023-05-12T10:30:12.660Z,2.47
2023-05-12T10:32:44.079Z,5.18
2023-05-12T10:35:16.012Z,3.25
2023-05-12T10:37:48.544Z,3.33
2023-05-12T10:40:26.777Z,4.97
2023-05-12T10:43:05.110Z,2.13
2023-05-12T10:45:41.959Z,5.60
2023-05-12T10:48:20.631Z,2.90
2023-05-12T10:50:57.436Z,2.53
2023-05-12T10:53:41.678Z,3.33
2023-05-12T10:59:15.064Z,2.75
2023-05-12T11:02:03.895Z,5.43
2023-05-12T11:04:47.538Z,3.80
2023-05-12T11:07:20.307Z,6.22
2023-05-12T11:09:58.549Z,5.80
2023-05-12T11:12:33.173Z,5.72
2023-05-12T11:15:05.677Z,3.33
2023-05-12T11:17:39.898Z,3.50
2023-05-12T11:20:23.098Z,6.28
2023-05-12T11:22:53.312Z,3.65
2023-05-12T11:25:23.348Z,6.05
2023-05-12T11:27:54.408Z,2.90
2023-05-12T11:30:24.195Z,5.38
2023-05-12T11:33:03.711Z,3.67
2023-05-12T11:35:35.655Z,3.28
2023-05-12T11:38:17.612Z,3.03
2023-05-12T11:40:51.107Z,6.40
2023-05-12T11:43:23.997Z,3.42
2023-05-12T11:45:56.638Z,3.22
2023-05-12T11:48:36.140Z,3.00
2023-05-12T11:51:11.853Z,5.07
2023-05-12T11:53:42.996Z,3.28
2023-05-12T11:56:20.521Z,3.33
2023-05-12T11:58:59.094Z,6.43
2023-05-12T12:01:28.177Z,3.40
2023-05-12T12:03:59.687Z,3.22
2023-05-12T12:06:31.724Z,5.15
2023-05-12T12:09:03.819Z,3.25
2023-05-12T12:11:35.615Z,5.07
2023-05-12T12:14:13.675Z,2.83
2023-05-12T12:16:43.569Z,3.45
2023-05-12T12:19:13.751Z,4.07
2023-05-12T12:21:44.617Z,3.38
2023-05-12T12:24:14.182Z,4.38
2023-05-12T12:26:43.739Z,3.80
2023-05-12T12:29:11.975Z,3.08
2023-05-12T12:31:42.845Z,3.42
2023-05-12T12:34:12.508Z,2.17
2023-05-12T12:36:43.660Z,3.60
2023-05-12T12:39:13.852Z,2.88
2023-05-12T12:41:42.346Z,3.42
2023-05-12T12:44:12.042Z,2.83
2023-05-12T12:46:40.343Z,2.63
2023-05-12T12:49:09.789Z,3.33
2023-05-12T12:51:46.191Z,2.78
2023-05-12T12:54:16.764Z,3.63
2023-05-12T12:56:47.034Z,3.42
2023-05-12T12:59:18.060Z,2.88
2023-05-12T13:01:46.909Z,3.05
2023-05-12T13:04:20.797Z,3.00
2023-05-12T13:06:49.241Z,2.88
2023-05-12T13:09:21.411Z,2.75
2023-05-12T13:11:51.509Z,2.60
2023-05-12T13:14:21.260Z,2.40
2023-05-12T13:16:50.797Z,2.85
2023-05-12T13:19:21.800Z,2.35
2023-05-12T13:21:50.477Z,2.75
2023-05-12T13:24:24.131Z,2.28
2023-05-12T13:26:52.654Z,3.53
2023-05-12T13:29:23.528Z,2.55
2023-05-12T13:31:51.796Z,3.83
2023-05-12T13:34:22.486Z,2.08
2023-05-12T13:36:53.392Z,1.77
2023-05-12T13:39:23.082Z,3.05
2023-05-12T13:41:53.648Z,2.20
2023-05-12T13:44:23.251Z,1.95
2023-05-12T13:46:53.121Z,1.45
2023-05-12T13:49:22.536Z,2.00
2023-05-12T13:51:52.003Z,2.25
2023-05-12T13:54:23.986Z,2.45
2023-05-12T13:56:54.790Z,4.07
2023-05-12T13:59:23.018Z,5.07
2023-05-12T14:01:51.283Z,2.35
2023-05-12T14:04:19.565Z,2.75
2023-05-12T14:06:49.120Z,2.70
2023-05-12T14:09:17.521Z,2.17
2023-05-12T14:11:48.854Z,2.33
2023-05-12T14:14:18.606Z,2.75
2023-05-12T14:16:48.541Z,3.03
2023-05-12T14:19:19.638Z,2.88
2023-05-12T14:21:47.829Z,2.97
2023-05-12T14:24:17.314Z,2.05
2023-05-12T14:26:48.673Z,1.90
2023-05-12T14:29:18.461Z,3.05
2023-05-12T14:31:46.686Z,2.83
2023-05-12T14:34:17.575Z,2.72
2023-05-12T14:36:45.788Z,3.25
2023-05-12T14:39:14.261Z,2.33
2023-05-12T14:41:43.167Z,2.63
2023-05-12T14:44:16.008Z,2.92
2023-05-12T14:46:45.183Z,5.40
2023-05-12T14:49:15.983Z,3.25
2023-05-12T14:51:45.443Z,3.30
2023-05-12T14:54:24.742Z,2.80
2023-05-12T14:56:56.444Z,2.85
2023-05-12T14:59:26.381Z,5.50
2023-05-12T15:01:57.378Z,2.35
2023-05-12T15:04:27.287Z,3.67
2023-05-12T15:06:55.671Z,3.65
2023-05-12T15:09:25.367Z,5.63
2023-05-12T15:11:55.110Z,4.07
2023-05-12T15:16:55.603Z,3.60
2023-05-12T15:19:23.840Z,3.13
2023-05-12T15:21:53.648Z,3.05
2023-05-12T15:24:23.141Z,3.67
2023-05-12T15:26:52.598Z,3.55
2023-05-12T15:29:21.341Z,3.42
2023-05-12T15:31:52.277Z,4.28
2023-05-12T15:34:22.266Z,3.45
2023-05-12T15:36:51.797Z,3.30
2023-05-12T15:39:23.808Z,3.20
2023-05-12T15:41:52.607Z,3.10
2023-05-12T15:44:22.285Z,3.10
2023-05-12T15:46:53.512Z,2.10
2023-05-12T15:49:21.710Z,4.00
2023-05-12T15:51:50.328Z,2.80
2023-05-12T15:54:20.012Z,3.40
2023-05-12T15:56:50.264Z,2.88
2023-05-12T15:59:19.896Z,3.30
2023-05-12T16:01:49.471Z,2.80
2023-05-12T16:04:21.794Z,2.65
2023-05-12T16:06:50.011Z,2.75
2023-05-12T16:09:21.655Z,2.63
2023-05-12T16:11:53.241Z,2.22
2023-05-12T16:14:22.967Z,1.77
2023-05-12T16:16:53.794Z,1.88
2023-05-12T16:19:24.783Z,1.67
2023-05-12T16:21:56.214Z,2.50
2023-05-12T16:24:28.229Z,2.65
2023-05-12T16:26:58.793Z,2.30
2023-05-12T16:29:29.155Z,2.72
2023-05-12T16:32:00.409Z,2.35
2023-05-12T16:34:31.384Z,5.18
2023-05-12T16:37:00.896Z,2.72
2023-05-12T16:39:32.356Z,2.13
2023-05-12T16:42:01.700Z,2.70
2023-05-12T16:44:32.321Z,2.35
2023-05-12T16:47:01.691Z,3.53
2023-05-12T16:49:32.431Z,2.50
2023-05-12T16:52:02.249Z,2.53
2023-05-12T16:54:32.753Z,2.08
2023-05-12T16:57:02.269Z,2.55
2023-05-12T16:59:32.374Z,3.85
2023-05-12T17:02:02.172Z,3.72
2023-05-12T17:04:34.320Z,4.13
2023-05-12T17:07:04.306Z,5.10
2023-05-12T17:09:33.648Z,5.38
2023-05-12T17:12:01.878Z,3.85
2023-05-12T17:14:30.119Z,3.38
2023-05-12T17:17:00.247Z,4.25
2023-05-12T17:19:30.015Z,4.53
2023-05-12T17:22:02.461Z,4.85
2023-05-12T17:24:30.673Z,12.68
2023-05-12T17:27:01.718Z,5.15
2023-05-12T17:29:29.910Z,6.78
2023-05-12T17:31:59.952Z,6.38
2023-05-12T17:34:28.621Z,6.18
2023-05-12T17:37:01.413Z,5.22
2023-05-12T17:39:31.228Z,4.88
2023-05-12T17:42:00.717Z,4.50
2023-05-12T17:44:29.957Z,5.53
2023-05-12T17:47:00.529Z,4.80
2023-05-12T17:49:31.696Z,16.73
2023-05-12T17:52:02.421Z,7.18
2023-05-12T17:54:30.600Z,7.40
2023-05-12T17:57:00.461Z,6.38
2023-05-12T17:59:29.790Z,6.95
2023-05-12T18:01:59.208Z,8.20
2023-05-12T18:04:29.345Z,6.47
2023-05-12T18:07:00.129Z,8.75
2023-05-12T18:09:30.389Z,6.70
2023-05-12T18:11:58.911Z,8.68
2023-05-12T18:14:31.658Z,10.82
2023-05-12T18:17:01.123Z,16.60
2023-05-12T18:19:30.496Z,10.27
2023-05-12T18:22:00.046Z,2.97
2023-05-12T18:24:30.192Z,4.15
2023-05-12T18:27:01.086Z,3.28
2023-05-12T18:29:29.562Z,4.88
2023-05-12T18:31:57.698Z,3.92
2023-05-12T18:34:25.786Z,7.35
2023-05-12T18:36:55.974Z,3.92
2023-05-12T18:39:26.778Z,9.48
2023-05-12T18:41:57.592Z,13.23
2023-05-12T18:44:27.134Z,4.50
2023-05-12T18:46:55.390Z,15.73
2023-05-12T18:49:23.978Z,6.95
2023-05-12T18:51:53.656Z,6.63
2023-05-12T18:54:23.054Z,5.75
2023-05-12T18:59:20.855Z,11.10
2023-05-12T19:01:54.492Z,4.40
2023-05-12T19:04:23.447Z,6.05
2023-05-12T19:06:52.129Z,3.70
2023-05-12T19:09:22.879Z,4.68
2023-05-12T19:11:53.609Z,5.88
2023-05-12T19:14:23.812Z,3.55
2023-05-12T19:16:51.984Z,3.33
2023-05-12T19:19:22.497Z,3.97
2023-05-12T19:21:50.620Z,3.30
2023-05-12T19:24:19.953Z,5.13
2023-05-12T19:26:49.252Z,5.88
2023-05-12T19:29:20.045Z,5.07
2023-05-12T19:31:50.797Z,4.82
2023-05-12T19:34:21.538Z,5.57
2023-05-12T19:36:52.848Z,3.10
2023-05-12T19:39:21.018Z,3.00
2023-05-12T19:41:51.622Z,4.40
2023-05-12T19:44:24.016Z,5.10
2023-05-12T19:46:55.385Z,2.92
2023-05-12T19:49:23.906Z,4.22
2023-05-12T19:51:54.533Z,3.72
2023-05-12T19:54:23.872Z,4.65
2023-05-12T19:56:52.203Z,4.55
2023-05-12T19:59:22.888Z,4.65
2023-05-12T20:01:52.188Z,5.00
2023-05-12T20:04:20.329Z,4.60
2023-05-12T20:06:49.711Z,8.20
2023-05-12T20:09:20.460Z,7.20
2023-05-12T20:11:48.992Z,3.60
2023-05-12T20:14:18.362Z,4.43
2023-05-12T20:16:50.363Z,4.10
2023-05-12T20:19:20.380Z,4.07
2023-05-12T20:21:49.801Z,4.97
2023-05-12T20:24:19.237Z,3.60
2023-05-12T20:26:47.722Z,4.30
2023-05-12T20:29:20.774Z,4.07
2023-05-12T20:31:54.134Z,5.20
2023-05-12T20:34:22.843Z,4.32
2023-05-12T20:36:51.357Z,6.57
2023-05-12T20:39:21.247Z,4.55
2023-05-12T20:41:49.389Z,3.55
2023-05-12T20:44:19.361Z,6.82
2023-05-12T20:46:48.085Z,4.38
2023-05-12T20:49:17.909Z,4.85
2023-05-12T20:51:47.296Z,3.53
2023-05-12T20:54:17.056Z,5.47
2023-05-12T20:56:45.312Z,5.07
2023-05-12T20:59:14.699Z,4.53
2023-05-12T21:01:42.887Z,4.43
2023-05-12T21:04:13.479Z,4.63
2023-05-12T21:06:45.544Z,4.82
2023-05-12T21:09:15.538Z,4.80
2023-05-12T21:11:44.991Z,4.10
2023-05-12T21:14:14.722Z,4.40
2023-05-12T21:16:45.266Z,4.45
2023-05-12T21:19:13.435Z,5.15
2023-05-12T21:21:44.204Z,5.93
2023-05-12T21:24:12.335Z,4.78
2023-05-12T21:26:42.072Z,6.68
2023-05-12T21:29:10.273Z,5.88
2023-05-12T21:31:40.364Z,6.20
2023-05-12T21:34:08.524Z,5.55
2023-05-12T21:36:38.495Z,5.40
2023-05-12T21:39:09.567Z,4.57
2023-05-12T21:41:38.530Z,5.95
2023-05-12T21:44:11.095Z,5.93
2023-05-12T21:46:40.876Z,6.18
2023-05-12T21:49:11.983Z,4.53
2023-05-12T21:51:42.015Z,4.90
2023-05-12T21:54:13.501Z,3.72
2023-05-12T21:56:41.816Z,4.95
2023-05-12T22:01:39.334Z,8.57
2023-05-12T22:04:09.160Z,6.80
2023-05-12T22:06:37.448Z,8.00
2023-05-12T22:09:05.755Z,5.30
2023-05-12T22:11:36.504Z,5.40
2023-05-12T22:14:07.425Z,5.45
2023-05-12T22:16:42.016Z,4.28
2023-05-12T22:19:12.484Z,5.90
2023-05-12T22:21:42.254Z,6.22
2023-05-12T22:24:11.147Z,5.30
2023-05-12T22:26:42.592Z,3.60
2023-05-12T22:29:12.500Z,5.03
2023-05-12T22:31:41.228Z,4.25
2023-05-12T22:34:11.070Z,4.80
2023-05-12T22:36:42.006Z,5.38
2023-05-12T22:39:13.348Z,5.63
2023-05-12T22:41:45.301Z,4.90
2023-05-12T22:44:13.432Z,6.13
2023-05-12T22:46:41.645Z,6.40
2023-05-12T22:49:11.379Z,5.20
2023-05-12T22:51:42.278Z,4.95
2023-05-12T22:54:11.367Z,5.18
2023-05-12T22:56:42.250Z,4.57
2023-05-12T22:59:11.744Z,4.93
2023-05-12T23:01:41.455Z,5.47
2023-05-12T23:04:11.139Z,5.07
2023-05-12T23:06:41.017Z,3.45
2023-05-12T23:09:09.646Z,5.47
2023-05-12T23:11:37.888Z,4.75
2023-05-12T23:14:07.463Z,4.65
2023-05-12T23:19:07.880Z,5.78
2023-05-12T23:21:36.570Z,5.47
2023-05-12T23:24:08.183Z,4.38
2023-05-12T23:26:37.852Z,4.90
2023-05-12T23:29:07.667Z,4.65
2023-05-12T23:31:39.665Z,4.38
2023-05-12T23:34:09.690Z,4.88
2023-05-12T23:36:38.343Z,4.70
2023-05-12T23:39:09.623Z,4.65
2023-05-12T23:41:39.146Z,6.35
2023-05-12T23:44:08.537Z,4.50
2023-05-12T23:46:40.472Z,4.82
2023-05-12T23:49:09.854Z,6.07
2023-05-12T23:51:39.705Z,5.20
2023-05-12T23:54:09.361Z,4.85
2023-05-12T23:56:40.053Z,5.75
2023-05-12T23:59:08.957Z,4.68
